Time;durP1;ratioP1;P1;durP2;ratioP2;P2;SDS_P1;SDS_P2;PMS_P1;PMS_P2;Temp;Humidity;BMP_temperature;BMP_pressure;BME280_temperature;BME280_humidity;BME280_pressure;Samples;Min_cycle;Max_cycle;Signal;HPM_P1;HPM_P2
2022/05/16 00:10:07;;;;;;;5.1;8.2;;;;;;;-133;88.7;65260;;;;
2022/05/16 00:20:07;;;;;;;6.5;10.7;;;;;;;-133;93.8;65260;;;;
2022/05/16 00:30:07;;;;;;;6.5;10.7;;;;;;;-133;92.3;65270;;;;
2022/05/16 00:40:07;;;;;;;6.5;10.7;;;;;;;-133;94.6;65270;;;;
2022/05/16 00:51:07;;;;;;;6.8;9.9;;;;;;;-133;93.8;65270;;;;
2022/05/16 01:04:47;;;;;;;6.8;9.9;;;;;;;-133;95;65270;;;;
2022/05/16 01:11:07;;;;;;;6.8;9.9;;;;;;;-133;94.2;65270;;;;
2022/05/16 01:21:07;;;;;;;6.5;11.5;;;;;;;-133;93.8;65270;;;;
2022/05/16 01:32:07;;;;;;;6.5;11.5;;;;;;;-133;94.1;65270;;;;
2022/05/16 01:42:07;;;;;;;6.5;11.5;;;;;;;-133;94;65270;;;;
2022/05/16 01:52:07;;;;;;;7.7;11.9;;;;;;;-133;96.4;65270;;;;
2022/05/16 02:02:07;;;;;;;7.7;11.9;;;;;;;-133;95.6;65270;;;;
2022/05/16 02:13:08;;;;;;;7.7;11.9;;;;;;;-133;95.6;65270;;;;
2022/05/16 02:34:08;;;;;;;6.5;9.9;;;;;;;-133;96.2;65270;;;;
2022/05/16 02:44:07;;;;;;;6.1;9.8;;;;;;;-133;95.3;65270;;;;
2022/05/16 02:55:07;;;;;;;6.1;9.8;;;;;;;-133;95.7;65270;;;;
2022/05/16 03:05:07;;;;;;;6.1;9.8;;;;;;;-133;100;65280;;;;
2022/05/16 03:16:07;;;;;;;6.4;10.4;;;;;;;-133;99.1;65270;;;;
2022/05/16 03:26:07;;;;;;;6.4;10.4;;;;;;;-133;98.3;65280;;;;
2022/05/16 03:36:07;;;;;;;6.4;10.4;;;;;;;-133;98.6;65270;;;;
2022/05/16 03:47:07;;;;;;;6.4;9.8;;;;;;;-133;97.6;65270;;;;
2022/05/16 03:57:07;;;;;;;6.4;9.8;;;;;;;-133;97.3;65270;;;;
2022/05/16 04:08:07;;;;;;;6.4;9.8;;;;;;;-133;97.6;65270;;;;
2022/05/16 04:18:07;;;;;;;6.2;9.6;;;;;;;-133;97.7;65270;;;;
2022/05/16 04:29:07;;;;;;;6.2;9.6;;;;;;;-133;95.9;65260;;;;
2022/05/16 04:39:07;;;;;;;6.2;9.6;;;;;;;-133;94.2;65270;;;;
2022/05/16 04:49:07;;;;;;;7.3;11.3;;;;;;;-133;92.6;65260;;;;
2022/05/16 05:00:07;;;;;;;7.3;11.3;;;;;;;-133;88.7;65260;;;;
2022/05/16 05:20:13;;;;;;;5.6;10.6;;;;;;;-133;83.1;65250;;;;
2022/05/16 05:30:07;;;;;;;5.6;10.6;;;;;;;-133;82.6;65250;;;;
2022/05/16 05:41:07;;;;;;;5.6;10.6;;;;;;;-133;79.2;65260;;;;
2022/05/16 05:51:07;;;;;;;4.1;6.5;;;;;;;-133;78.8;65250;;;;
2022/05/16 06:01:08;;;;;;;4.1;6.5;;;;;;;-133;75.1;65250;;;;
2022/05/16 06:12:07;;;;;;;4.1;6.5;;;;;;;-133;72.5;65240;;;;
2022/05/16 06:23:07;;;;;;;4.9;10.4;;;;;;;-133;70.5;65240;;;;
2022/05/16 06:34:07;;;;;;;4.9;10.4;;;;;;;-133;67.2;65240;;;;
2022/05/16 06:45:07;;;;;;;5;9.3;;;;;;;-133;68;65240;;;;
2022/05/16 06:56:07;;;;;;;5;9.3;;;;;;;-133;68.4;65240;;;;
2022/05/16 07:06:07;;;;;;;5;9.3;;;;;;;-133;65.7;65230;;;;
2022/05/16 07:17:07;;;;;;;7;11.9;;;;;;;-133;64;65230;;;;
2022/05/16 07:28:07;;;;;;;7;11.9;;;;;;;-133;62;65230;;;;
2022/05/16 07:39:07;;;;;;;7;11.9;;;;;;;-133;60.1;65230;;;;
2022/05/16 07:49:07;;;;;;;5.9;12.7;;;;;;;-133;54.8;65230;;;;
2022/05/16 08:00:07;;;;;;;5.9;12.7;;;;;;;-133;50.9;65220;;;;
2022/05/16 08:11:09;;;;;;;5.9;12.7;;;;;;;-133;47.5;65230;;;;
2022/05/16 08:22:07;;;;;;;3.3;7.8;;;;;;;-133;44.6;65220;;;;
2022/05/16 08:32:07;;;;;;;3.3;7.8;;;;;;;-133;45.5;65220;;;;
2022/05/16 08:43:07;;;;;;;2.2;5.3;;;;;;;-133;45.4;65220;;;;
2022/05/16 08:53:07;;;;;;;2.2;5.3;;;;;;;-133;42.2;65220;;;;
2022/05/16 09:04:07;;;;;;;2.2;5.3;;;;;;;-133;41.7;65220;;;;
2022/05/16 09:14:07;;;;;;;2.9;8.3;;;;;;;-133;39.6;65220;;;;
2022/05/16 09:24:07;;;;;;;2.9;8.3;;;;;;;-133;39.5;65220;;;;
2022/05/16 09:34:09;;;;;;;2.9;8.3;;;;;;;-133;40.7;65220;;;;
2022/05/16 09:44:07;;;;;;;1.8;4.7;;;;;;;-133;40.6;65220;;;;
2022/05/16 09:55:07;;;;;;;1.8;4.7;;;;;;;-133;41.1;65220;;;;
2022/05/16 10:05:07;;;;;;;1.8;4.7;;;;;;;-133;39.2;65220;;;;
2022/05/16 10:15:07;;;;;;;1.9;4.2;;;;;;;-133;40.9;65220;;;;
2022/05/16 10:25:08;;;;;;;1.9;4.2;;;;;;;-133;43.4;65220;;;;
2022/05/16 10:36:07;;;;;;;1.9;4.2;;;;;;;-133;40.5;65220;;;;
2022/05/16 10:46:07;;;;;;;2.2;5;;;;;;;-133;35.8;65220;;;;
2022/05/16 10:56:07;;;;;;;2.2;5;;;;;;;-133;36.1;65220;;;;
2022/05/16 11:06:07;;;;;;;2.2;5;;;;;;;-133;38.5;65220;;;;
2022/05/16 11:17:07;;;;;;;2.4;7.6;;;;;;;-133;35.4;65220;;;;
2022/05/16 11:27:09;;;;;;;2.4;7.6;;;;;;;-133;34.9;65220;;;;
2022/05/16 11:38:07;;;;;;;2.4;7.6;;;;;;;-133;35.5;65220;;;;
2022/05/16 11:49:08;;;;;;;2;7.6;;;;;;;-133;34;65220;;;;
2022/05/16 12:09:08;;;;;;;2;7.6;;;;;;;-133;35.2;65220;;;;
2022/05/16 12:19:07;;;;;;;2.2;4.8;;;;;;;-133;35.2;65220;;;;
2022/05/16 12:30:08;;;;;;;2.2;4.8;;;;;;;-133;33.9;65220;;;;
2022/05/16 12:41:07;;;;;;;2.2;4.8;;;;;;;-133;34.1;65220;;;;
2022/05/16 12:51:07;;;;;;;2.7;9.5;;;;;;;-133;31.7;65220;;;;
2022/05/16 13:01:07;;;;;;;2.7;9.5;;;;;;;-133;33.1;65220;;;;
2022/05/16 13:11:07;;;;;;;2.7;9.5;;;;;;;-133;31.5;65220;;;;
2022/05/16 13:22:07;;;;;;;2.3;6.2;;;;;;;-133;32.4;65220;;;;
2022/05/16 13:32:08;;;;;;;2.3;6.2;;;;;;;-133;32.9;65220;;;;
2022/05/16 13:43:07;;;;;;;2.5;5.1;;;;;;;-133;31.4;65220;;;;
2022/05/16 13:53:08;;;;;;;2.5;5.1;;;;;;;-133;32.2;65220;;;;
2022/05/16 14:03:09;;;;;;;2.5;5.1;;;;;;;-133;32;65220;;;;
2022/05/16 14:14:08;;;;;;;3;11.9;;;;;;;-133;31;65220;;;;
2022/05/16 14:25:07;;;;;;;3;11.9;;;;;;;-133;31;65220;;;;
2022/05/16 14:35:07;;;;;;;3;11.9;;;;;;;-133;30.3;65220;;;;
2022/05/16 14:45:07;;;;;;;2.3;6.2;;;;;;;-133;30.8;65230;;;;
2022/05/16 14:55:09;;;;;;;2.3;6.2;;;;;;;-133;29.7;65230;;;;
2022/05/16 15:06:07;;;;;;;2.3;6.2;;;;;;;-133;27.4;65220;;;;
2022/05/16 15:16:07;;;;;;;2.8;5.7;;;;;;;-133;25.5;65220;;;;
2022/05/16 15:26:07;;;;;;;2.8;5.7;;;;;;;-133;22;65220;;;;
2022/05/16 15:37:07;;;;;;;2.8;5.7;;;;;;;-133;20.7;65220;;;;
2022/05/16 15:47:07;;;;;;;2.4;5.3;;;;;;;-133;19.5;65220;;;;
2022/05/16 15:58:07;;;;;;;2.4;5.3;;;;;;;-133;19.5;65230;;;;
2022/05/16 16:08:39;;;;;;;2.4;5.3;;;;;;;-133;20;65230;;;;
2022/05/16 16:18:07;;;;;;;2.8;14;;;;;;;-133;22.3;65230;;;;
2022/05/16 16:28:07;;;;;;;2.8;14;;;;;;;-133;22.1;65230;;;;
2022/05/16 16:38:07;;;;;;;2.8;14;;;;;;;-133;21.1;65230;;;;
2022/05/16 16:49:07;;;;;;;3.2;10.9;;;;;;;-133;21.2;65230;;;;
2022/05/16 16:59:09;;;;;;;3.2;10.9;;;;;;;-133;23.6;65240;;;;
2022/05/16 17:09:07;;;;;;;3.2;10.9;;;;;;;-133;22.3;65240;;;;
2022/05/16 17:19:07;;;;;;;2.4;6.5;;;;;;;-133;26.2;65240;;;;
2022/05/16 17:30:07;;;;;;;2.4;6.5;;;;;;;-133;30.1;65240;;;;
2022/05/16 17:41:07;;;;;;;2.4;6.5;;;;;;;-133;35.9;65250;;;;
2022/05/16 17:52:07;;;;;;;5.9;24.8;;;;;;;-133;38.2;65250;;;;
2022/05/16 18:02:07;;;;;;;5.9;24.8;;;;;;;-133;41.8;65250;;;;
2022/05/16 18:13:07;;;;;;;5.9;24.8;;;;;;;-133;45;65260;;;;
2022/05/16 18:24:07;;;;;;;5.1;10.1;;;;;;;-133;47.4;65250;;;;
2022/05/16 18:35:07;;;;;;;5.1;10.1;;;;;;;-133;48.6;65260;;;;
2022/05/16 18:56:07;;;;;;;11.3;69.6;;;;;;;-133;53.3;65260;;;;
2022/05/16 19:06:08;;;;;;;11.3;69.6;;;;;;;-133;54.5;65260;;;;
2022/05/16 19:16:07;;;;;;;3.1;8.2;;;;;;;-133;54.7;65260;;;;
2022/05/16 19:26:09;;;;;;;3.1;8.2;;;;;;;-133;56.1;65260;;;;
2022/05/16 19:36:08;;;;;;;3.1;8.2;;;;;;;-133;57.2;65260;;;;
2022/05/16 19:47:08;;;;;;;5;13.3;;;;;;;-133;59.4;65260;;;;
2022/05/16 19:57:09;;;;;;;5;13.3;;;;;;;-133;60.9;65260;;;;
2022/05/16 20:07:08;;;;;;;5;13.3;;;;;;;-133;61.8;65260;;;;
2022/05/16 20:18:07;;;;;;;6.3;12.3;;;;;;;-133;62.1;65260;;;;
2022/05/16 20:28:08;;;;;;;6.3;12.3;;;;;;;-133;63.9;65260;;;;
2022/05/16 20:39:08;;;;;;;6.3;12.3;;;;;;;-133;70.5;65260;;;;
2022/05/16 20:49:09;;;;;;;6.7;12.5;;;;;;;-133;69.4;65260;;;;
2022/05/16 21:00:08;;;;;;;6.7;12.5;;;;;;;-133;70.2;65260;;;;
2022/05/16 21:10:08;;;;;;;6.7;12.5;;;;;;;-133;74.7;65260;;;;
2022/05/16 21:21:07;;;;;;;6.9;14.5;;;;;;;-133;72.6;65260;;;;
2022/05/16 21:31:08;;;;;;;6.9;14.5;;;;;;;-133;72.5;65260;;;;
2022/05/16 21:42:08;;;;;;;6.9;14.5;;;;;;;-133;69.9;65250;;;;
2022/05/16 21:52:08;;;;;;;6.5;13.5;;;;;;;-133;67.9;65260;;;;
2022/05/16 22:03:08;;;;;;;6.5;13.5;;;;;;;-133;66.4;65260;;;;
2022/05/16 22:13:08;;;;;;;6.5;13.5;;;;;;;-133;66.6;65260;;;;
2022/05/16 22:24:08;;;;;;;4.6;8.8;;;;;;;-133;66.5;65260;;;;
2022/05/16 22:34:08;;;;;;;4.6;8.8;;;;;;;-133;67;65260;;;;
2022/05/16 22:45:08;;;;;;;5.1;15.1;;;;;;;-133;67.6;65260;;;;
2022/05/16 22:56:08;;;;;;;5.1;15.1;;;;;;;-133;68.8;65260;;;;
2022/05/16 23:07:08;;;;;;;5.1;15.1;;;;;;;-133;70;65260;;;;
2022/05/16 23:17:08;;;;;;;6;10.2;;;;;;;-133;73.2;65260;;;;
2022/05/16 23:28:08;;;;;;;6;10.2;;;;;;;-133;72.5;65260;;;;
2022/05/16 23:38:08;;;;;;;6;10.2;;;;;;;-133;73.1;65260;;;;
2022/05/16 23:48:08;;;;;;;5.8;11;;;;;;;-133;73.8;65270;;;;
2022/05/16 23:59:08;;;;;;;5.8;11;;;;;;;-133;76.3;65270;;;;
